createdAt,value
2023-08-10T15:25:06.650Z,80.24
2023-08-10T15:25:38.896Z,81.78
2023-08-10T15:26:11.117Z,78.96
2023-08-10T15:26:43.103Z,85.20
2023-08-10T15:27:14.968Z,90.71
2023-08-10T15:27:46.883Z,80.41
2023-08-10T15:28:18.698Z,81.93
2023-08-10T15:28:52.280Z,82.68
2023-08-10T15:29:24.165Z,77.43
2023-08-10T15:29:56.039Z,74.13
2023-08-10T15:30:28.086Z,71.41
2023-08-10T15:31:00.372Z,74.16
2023-08-10T15:31:32.320Z,73.87
2023-08-10T15:32:04.810Z,81.49
2023-08-10T15:32:36.922Z,85.67
2023-08-10T15:33:08.846Z,81.19
2023-08-10T15:33:40.810Z,82.14
2023-08-10T15:34:12.763Z,71.78
2023-08-10T15:34:44.673Z,68.73
2023-08-10T15:35:16.772Z,73.87
2023-08-10T15:35:48.639Z,84.19
2023-08-10T15:36:20.667Z,82.69
2023-08-10T15:36:52.492Z,85.20
2023-08-10T15:37:24.472Z,83.90
2023-08-10T15:37:56.875Z,80.15
2023-08-10T15:38:28.807Z,75.86
2023-08-10T15:39:00.653Z,76.50
2023-08-10T15:39:32.639Z,75.83
2023-08-10T15:40:05.304Z,81.54
2023-08-10T15:40:37.269Z,76.42
2023-08-10T15:41:09.204Z,79.91
2023-08-10T15:41:41.035Z,80.34
2023-08-10T15:42:14.060Z,78.55
2023-08-10T15:42:46.006Z,75.29
2023-08-10T15:43:18.319Z,82.02
2023-08-10T15:43:50.148Z,76.68
2023-08-10T15:44:22.064Z,79.89
2023-08-10T15:44:54.085Z,76.87
2023-08-10T15:45:26.001Z,77.59
2023-08-10T15:45:57.940Z,75.43
2023-08-10T15:46:29.939Z,73.17
2023-08-10T15:47:01.821Z,77.20
2023-08-10T15:47:33.756Z,79.08
2023-08-10T15:48:06.322Z,81.63
2023-08-10T15:48:38.334Z,80.51
2023-08-10T15:49:10.493Z,84.23
2023-08-10T15:49:42.431Z,81.77
2023-08-10T15:50:16.196Z,76.24
2023-08-10T15:50:48.949Z,82.38
2023-08-10T15:51:20.816Z,80.03
2023-08-10T15:51:52.662Z,80.35
2023-08-10T15:52:24.682Z,76.98
2023-08-10T15:52:56.625Z,74.80
2023-08-10T15:53:28.502Z,75.73
2023-08-10T15:54:00.400Z,80.22
2023-08-10T15:54:32.425Z,85.82
2023-08-10T15:55:04.641Z,79.88
2023-08-10T15:55:36.534Z,83.50
2023-08-10T15:56:08.589Z,87.07
2023-08-10T15:56:40.682Z,85.04
2023-08-10T15:57:12.521Z,81.60
2023-08-10T15:57:44.444Z,72.84
2023-08-10T15:58:16.370Z,75.99
2023-08-10T15:58:48.595Z,82.06
2023-08-10T15:59:20.723Z,83.50
2023-08-10T15:59:52.973Z,77.34
2023-08-10T16:00:24.851Z,78.80
2023-08-10T16:00:56.677Z,77.33
2023-08-10T16:01:28.546Z,76.06
2023-08-10T16:02:00.642Z,76.32
2023-08-10T16:02:32.594Z,81.39
2023-08-10T16:03:06.209Z,83.32
2023-08-10T16:03:38.881Z,82.17
2023-08-10T16:04:10.957Z,80.51
2023-08-10T16:04:42.828Z,85.77
2023-08-10T16:05:15.193Z,85.75
2023-08-10T16:05:47.665Z,82.58
2023-08-10T16:06:19.769Z,78.44
2023-08-10T16:06:51.998Z,76.56
2023-08-10T16:07:24.266Z,75.90
2023-08-10T16:07:56.116Z,77.53
2023-08-10T16:08:27.948Z,80.73
2023-08-10T16:09:00.475Z,85.26
2023-08-10T16:09:32.688Z,85.89
2023-08-10T16:10:08.552Z,73.87
2023-08-10T16:10:40.475Z,75.89
2023-08-10T16:11:12.593Z,79.31
2023-08-10T16:11:44.609Z,86.32
2023-08-10T16:12:16.532Z,88.12
2023-08-10T16:12:48.475Z,90.92
2023-08-10T16:13:20.331Z,86.24
2023-08-10T16:13:53.241Z,88.38
2023-08-10T16:14:25.372Z,84.76
2023-08-10T16:14:57.371Z,79.37
2023-08-10T16:15:30.072Z,75.92
2023-08-10T16:16:02.177Z,76.21
2023-08-10T16:16:34.819Z,80.03
2023-08-10T16:17:06.910Z,79.02
2023-08-10T16:17:39.017Z,76.02
2023-08-10T16:18:10.919Z,76.74
2023-08-10T16:18:43.390Z,76.47
2023-08-10T16:19:15.335Z,74.45
2023-08-10T16:19:47.251Z,74.07
2023-08-10T16:20:20.535Z,73.82
2023-08-10T16:20:52.534Z,72.73
2023-08-10T16:21:24.511Z,73.23
2023-08-10T16:21:56.434Z,73.83
2023-08-10T16:22:28.263Z,75.99
2023-08-10T16:23:00.150Z,75.11
2023-08-10T16:23:32.067Z,73.94
2023-08-10T16:24:04.227Z,74.60
2023-08-10T16:24:36.345Z,78.61
2023-08-10T16:25:11.187Z,82.40
2023-08-10T16:25:43.164Z,77.64
2023-08-10T16:26:15.076Z,75.40
2023-08-10T16:26:46.965Z,75.65
2023-08-10T16:27:22.605Z,80.89
2023-08-10T16:27:54.574Z,83.15
2023-08-10T16:28:27.022Z,78.05
2023-08-10T16:29:00.227Z,75.46
2023-08-10T16:29:32.110Z,75.96
2023-08-10T16:30:04.261Z,77.36
2023-08-10T16:30:37.642Z,79.32
2023-08-10T16:31:09.767Z,84.75
2023-08-10T16:31:41.720Z,83.38
2023-08-10T16:32:13.687Z,92.36
2023-08-10T16:32:45.775Z,91.08
2023-08-10T16:33:17.667Z,84.49
2023-08-10T16:33:49.629Z,79.10
2023-08-10T16:34:21.613Z,82.04
2023-08-10T16:34:54.286Z,83.01
2023-08-10T16:35:26.182Z,82.73
2023-08-10T16:35:58.091Z,85.89
2023-08-10T16:36:29.935Z,86.13
2023-08-10T16:37:02.970Z,83.44
2023-08-10T16:37:34.903Z,85.05
2023-08-10T16:38:06.801Z,88.46
2023-08-10T16:38:38.632Z,84.53
2023-08-10T16:39:10.553Z,87.56
2023-08-10T16:39:42.455Z,84.15
2023-08-10T16:40:14.861Z,83.27
2023-08-10T16:40:47.718Z,83.81
2023-08-10T16:41:19.630Z,83.71
2023-08-10T16:41:51.501Z,82.24
2023-08-10T16:42:23.437Z,80.75
2023-08-10T16:42:55.346Z,80.24
2023-08-10T16:43:29.203Z,80.25
2023-08-10T16:44:01.052Z,81.93
2023-08-10T16:44:32.920Z,88.46
2023-08-10T16:45:08.395Z,90.52
2023-08-10T16:45:40.745Z,89.01
2023-08-10T16:46:12.680Z,89.42
2023-08-10T16:46:44.589Z,86.01
2023-08-10T16:47:16.530Z,88.82
2023-08-10T16:47:48.520Z,90.29
2023-08-10T16:48:20.430Z,87.20
2023-08-10T16:48:52.303Z,83.79
2023-08-10T16:49:24.157Z,83.22
2023-08-10T16:50:05.156Z,81.81
2023-08-10T16:50:37.118Z,83.39
2023-08-10T16:51:09.441Z,84.14
2023-08-10T16:51:41.349Z,82.30
2023-08-10T16:52:13.497Z,84.59
2023-08-10T16:52:45.320Z,86.41
2023-08-10T16:53:17.210Z,86.06
2023-08-10T16:53:49.078Z,79.86
2023-08-10T16:54:21.675Z,80.49
2023-08-10T16:54:54.053Z,83.06
2023-08-10T16:55:26.068Z,84.21
2023-08-10T16:55:58.499Z,82.40
2023-08-10T16:56:30.377Z,81.60
2023-08-10T16:57:02.270Z,81.73
2023-08-10T16:57:34.245Z,83.39
2023-08-10T16:58:06.109Z,83.01
2023-08-10T16:58:37.973Z,83.00
2023-08-10T16:59:10.014Z,85.85
2023-08-10T16:59:42.237Z,85.23
2023-08-10T17:00:14.476Z,84.00
2023-08-10T17:00:46.348Z,82.88
2023-08-10T17:01:18.561Z,84.97
2023-08-10T17:01:50.458Z,82.21
2023-08-10T17:02:22.331Z,83.51
2023-08-10T17:02:54.644Z,88.38
2023-08-10T17:03:26.929Z,88.63
2023-08-10T17:03:58.925Z,87.59
2023-08-10T17:04:30.775Z,87.20
2023-08-10T17:05:03.174Z,86.37
2023-08-10T17:05:35.781Z,85.99
2023-08-10T17:06:07.648Z,89.38
2023-08-10T17:06:39.708Z,89.67
2023-08-10T17:07:11.583Z,89.00
2023-08-10T17:07:43.432Z,87.21
2023-08-10T17:08:15.314Z,87.43
2023-08-10T17:08:47.278Z,86.85
2023-08-10T17:09:19.292Z,87.29
2023-08-10T17:09:51.323Z,87.85
2023-08-10T17:10:23.251Z,85.63
2023-08-10T17:10:55.164Z,83.82
2023-08-10T17:11:27.025Z,85.88
2023-08-10T17:11:58.939Z,83.02
2023-08-10T17:12:30.812Z,83.15
2023-08-10T17:13:02.704Z,83.20
2023-08-10T17:13:36.275Z,87.54
2023-08-10T17:14:08.328Z,90.63
2023-08-10T17:14:40.239Z,91.14
2023-08-10T17:15:12.163Z,88.70
2023-08-10T17:15:44.111Z,90.79
2023-08-10T17:16:16.028Z,92.10
2023-08-10T17:16:48.159Z,91.34
2023-08-10T17:17:21.219Z,89.49
2023-08-10T17:17:53.065Z,86.86
2023-08-10T17:18:25.056Z,85.71
2023-08-10T17:18:57.014Z,85.18
2023-08-10T17:19:28.953Z,86.56
2023-08-10T17:20:00.818Z,87.28
2023-08-10T17:20:32.966Z,87.67
2023-08-10T17:21:04.791Z,86.33
2023-08-10T17:21:36.896Z,87.19
2023-08-10T17:22:09.025Z,87.56
2023-08-10T17:22:41.300Z,86.58
2023-08-10T17:23:13.176Z,88.09
2023-08-10T17:23:46.313Z,89.08
2023-08-10T17:24:18.223Z,89.55
2023-08-10T17:24:50.049Z,91.35
2023-08-10T17:25:23.745Z,91.35
2023-08-10T17:25:55.666Z,90.39
2023-08-10T17:26:27.520Z,90.88
2023-08-10T17:26:59.447Z,90.84
2023-08-10T17:27:31.379Z,90.01
2023-08-10T17:28:03.320Z,91.19
2023-08-10T17:28:35.295Z,92.08
2023-08-10T17:29:19.722Z,90.72
2023-08-10T17:29:53.532Z,91.69
2023-08-10T17:30:26.009Z,91.27
2023-08-10T17:30:57.904Z,91.27
2023-08-10T17:31:29.753Z,91.20
2023-08-10T17:32:01.911Z,90.82
2023-08-10T17:32:33.852Z,91.09
2023-08-10T17:33:05.998Z,91.96
2023-08-10T17:33:40.282Z,93.07
2023-08-10T17:34:12.206Z,92.02
2023-08-10T17:34:44.186Z,91.41
2023-08-10T17:35:16.698Z,91.68
2023-08-10T17:35:48.587Z,92.93
2023-08-10T17:36:20.454Z,92.12
2023-08-10T17:36:52.473Z,92.68
2023-08-10T17:37:28.499Z,93.36
2023-08-10T17:38:00.361Z,94.11
2023-08-10T17:38:32.176Z,92.67
2023-08-10T17:39:05.311Z,92.84
2023-08-10T17:39:37.671Z,94.35
2023-08-10T17:40:11.188Z,94.07
2023-08-10T17:40:43.171Z,94.65
2023-08-10T17:41:15.044Z,95.32
2023-08-10T17:41:48.384Z,95.22
2023-08-10T17:42:20.295Z,96.06
2023-08-10T17:42:52.568Z,95.58
2023-08-10T17:43:24.642Z,96.94
2023-08-10T17:43:56.570Z,96.04
2023-08-10T17:44:28.408Z,96.15
2023-08-10T17:45:00.448Z,95.38
2023-08-10T17:45:32.379Z,95.15
2023-08-10T17:46:04.359Z,96.61
2023-08-10T17:46:36.253Z,98.24
2023-08-10T17:47:08.233Z,98.57
2023-08-10T17:47:40.613Z,97.49
2023-08-10T17:48:12.492Z,97.99
2023-08-10T17:48:44.390Z,99.82
2023-08-10T17:49:16.282Z,100.00
2023-08-10T17:49:48.174Z,100.00
2023-08-10T17:50:20.338Z,100.00
2023-08-10T17:50:52.657Z,100.00
2023-08-10T17:51:25.576Z,100.00
2023-08-10T17:51:57.590Z,100.00
2023-08-10T17:52:29.472Z,100.00
2023-08-10T17:53:01.837Z,100.00
2023-08-10T17:53:35.033Z,100.00
2023-08-10T17:54:07.593Z,100.00
2023-08-10T17:54:39.678Z,100.00
2023-08-10T17:55:11.699Z,100.00
2023-08-10T17:55:43.622Z,100.00
2023-08-10T17:56:15.584Z,100.00
2023-08-10T17:56:47.571Z,100.00
2023-08-10T17:57:19.695Z,100.00
2023-08-10T17:57:51.674Z,100.00
2023-08-10T17:58:24.508Z,100.00
2023-08-10T17:58:56.419Z,100.00
2023-08-10T17:59:28.477Z,100.00
2023-08-10T18:00:07.784Z,100.00
2023-08-10T18:00:45.590Z,100.00
2023-08-10T18:01:17.681Z,100.00
2023-08-10T18:01:50.463Z,100.00
2023-08-10T18:02:22.579Z,100.00
2023-08-10T18:02:54.534Z,100.00
2023-08-10T18:03:26.806Z,100.00
2023-08-10T18:03:58.796Z,100.00
2023-08-10T18:04:30.742Z,100.00
2023-08-10T18:05:02.657Z,100.00
2023-08-10T18:05:34.528Z,100.00
2023-08-10T18:06:06.561Z,100.00
2023-08-10T18:06:38.475Z,100.00
2023-08-10T18:07:10.368Z,100.00
2023-08-10T18:07:42.240Z,100.00
2023-08-10T18:08:14.306Z,100.00
2023-08-10T18:08:46.237Z,100.00
2023-08-10T18:09:18.126Z,100.00
2023-08-10T18:09:52.659Z,100.00
2023-08-10T18:10:24.580Z,100.00
2023-08-10T18:10:56.558Z,100.00
2023-08-10T18:11:28.490Z,100.00
2023-08-10T18:12:00.337Z,100.00
2023-08-10T18:12:32.287Z,100.00
2023-08-10T18:13:04.597Z,100.00
2023-08-10T18:13:36.543Z,100.00
2023-08-10T18:14:10.651Z,100.00
2023-08-10T18:14:42.664Z,100.00
2023-08-10T18:15:14.626Z,100.00
2023-08-10T18:15:46.541Z,100.00
2023-08-10T18:16:19.159Z,100.00
2023-08-10T18:16:51.042Z,100.00
2023-08-10T18:17:23.676Z,100.00
2023-08-10T18:17:55.798Z,100.00
2023-08-10T18:18:28.745Z,100.00
2023-08-10T18:19:00.703Z,100.00
2023-08-10T18:19:32.565Z,100.00
2023-08-10T18:20:05.149Z,100.00
2023-08-10T18:20:37.086Z,100.00
2023-08-10T18:21:10.513Z,100.00
2023-08-10T18:21:42.539Z,100.00
2023-08-10T18:22:14.393Z,100.00
2023-08-10T18:22:46.299Z,100.00
2023-08-10T18:23:19.613Z,100.00
2023-08-10T18:23:51.531Z,100.00
2023-08-10T18:24:23.665Z,100.00
2023-08-10T18:24:56.544Z,100.00
2023-08-10T18:25:28.611Z,100.00
2023-08-10T18:26:01.298Z,100.00
2023-08-10T18:26:33.201Z,100.00
2023-08-10T18:27:09.481Z,100.00
2023-08-10T18:27:41.462Z,100.00
2023-08-10T18:28:13.635Z,100.00
2023-08-10T18:28:45.774Z,100.00
2023-08-10T18:29:17.658Z,100.00
2023-08-10T18:29:50.916Z,100.00
2023-08-10T18:30:22.915Z,100.00
2023-08-10T18:30:55.122Z,100.00
2023-08-10T18:31:27.502Z,100.00
2023-08-10T18:32:03.206Z,100.00
2023-08-10T18:32:35.281Z,100.00
2023-08-10T18:33:07.255Z,100.00
2023-08-10T18:33:39.154Z,100.00
2023-08-10T18:34:11.603Z,100.00
2023-08-10T18:34:44.476Z,100.00
2023-08-10T18:35:17.243Z,100.00
2023-08-10T18:35:49.290Z,100.00
2023-08-10T18:36:22.674Z,100.00
2023-08-10T18:36:56.886Z,100.00
2023-08-10T18:37:29.593Z,100.00
2023-08-10T18:38:01.512Z,100.00
2023-08-10T18:38:33.662Z,100.00
2023-08-10T18:39:05.661Z,100.00
2023-08-10T18:39:37.515Z,100.00
2023-08-10T18:40:10.120Z,100.00
2023-08-10T18:40:42.835Z,100.00
2023-08-10T18:41:15.639Z,100.00
2023-08-10T18:41:47.694Z,100.00
2023-08-10T18:42:19.870Z,100.00
2023-08-10T18:42:52.845Z,100.00
2023-08-10T18:43:24.829Z,100.00
2023-08-10T18:43:56.852Z,100.00
2023-08-10T18:44:28.882Z,100.00
2023-08-10T18:45:00.749Z,100.00
2023-08-10T18:45:32.787Z,100.00
2023-08-10T18:46:04.762Z,100.00
2023-08-10T18:46:36.963Z,100.00
2023-08-10T18:47:09.015Z,100.00
2023-08-10T18:47:44.400Z,100.00
2023-08-10T18:48:16.671Z,100.00
2023-08-10T18:48:48.671Z,100.00
2023-08-10T18:49:20.959Z,100.00
2023-08-10T18:49:53.667Z,100.00
2023-08-10T18:50:25.761Z,100.00
2023-08-10T18:50:58.887Z,100.00
2023-08-10T18:51:30.938Z,100.00
2023-08-10T18:52:02.981Z,100.00
2023-08-10T18:52:34.921Z,100.00
2023-08-10T18:53:08.730Z,100.00
2023-08-10T18:53:41.692Z,100.00
2023-08-10T18:54:13.642Z,100.00
2023-08-10T18:54:45.584Z,100.00
2023-08-10T18:55:18.711Z,100.00
2023-08-10T18:55:50.650Z,100.00
2023-08-10T18:56:22.506Z,100.00
2023-08-10T18:56:54.441Z,100.00
2023-08-10T18:57:26.506Z,100.00
2023-08-10T18:57:58.533Z,100.00
2023-08-10T18:58:30.491Z,100.00
2023-08-10T18:59:20.492Z,100.00
2023-08-10T18:59:52.550Z,100.00
2023-08-10T19:00:24.557Z,100.00
2023-08-10T19:00:57.468Z,100.00
2023-08-10T19:01:29.696Z,100.00
2023-08-10T19:02:01.620Z,100.00
2023-08-10T19:02:33.546Z,100.00
2023-08-10T19:03:05.738Z,100.00
2023-08-10T19:03:37.579Z,100.00
2023-08-10T19:04:09.767Z,100.00
2023-08-10T19:04:41.650Z,100.00
2023-08-10T19:05:13.739Z,100.00
2023-08-10T19:05:45.642Z,100.00
2023-08-10T19:06:17.545Z,100.00
2023-08-10T19:06:49.533Z,100.00
2023-08-10T19:07:21.404Z,100.00
2023-08-10T19:07:53.354Z,100.00
2023-08-10T19:08:25.550Z,100.00
2023-08-10T19:08:57.424Z,100.00
2023-08-10T19:09:29.266Z,100.00
2023-08-10T19:10:01.225Z,100.00
2023-08-10T19:10:33.155Z,100.00
2023-08-10T19:11:05.020Z,100.00
2023-08-10T19:11:36.840Z,100.00
2023-08-10T19:12:08.917Z,100.00
2023-08-10T19:12:41.041Z,100.00
2023-08-10T19:13:12.830Z,100.00
2023-08-10T19:13:44.709Z,100.00
2023-08-10T19:14:16.620Z,100.00
2023-08-10T19:14:49.115Z,100.00
2023-08-10T19:15:21.130Z,100.00
2023-08-10T19:16:02.728Z,100.00
2023-08-10T19:16:34.702Z,100.00
2023-08-10T19:17:06.824Z,100.00
2023-08-10T19:17:40.575Z,100.00
2023-08-10T19:18:12.478Z,100.00
2023-08-10T19:18:45.954Z,100.00
2023-08-10T19:19:17.941Z,100.00
2023-08-10T19:19:50.042Z,100.00
2023-08-10T19:20:21.887Z,100.00
2023-08-10T19:20:53.860Z,100.00
2023-08-10T19:21:25.673Z,100.00
2023-08-10T19:21:58.194Z,100.00
2023-08-10T19:22:30.118Z,100.00
2023-08-10T19:23:01.951Z,100.00
2023-08-10T19:23:34.455Z,100.00
2023-08-10T19:24:07.038Z,100.00
2023-08-10T19:24:39.248Z,100.00
2023-08-10T19:25:11.265Z,100.00
2023-08-10T19:25:43.184Z,100.00
2023-08-10T19:26:15.109Z,100.00
2023-08-10T19:26:46.971Z,100.00
2023-08-10T19:27:22.032Z,100.00
2023-08-10T19:27:53.969Z,100.00
2023-08-10T19:28:25.977Z,100.00
2023-08-10T19:28:58.023Z,100.00
2023-08-10T19:29:31.217Z,100.00
2023-08-10T19:30:07.102Z,100.00
2023-08-10T19:30:39.255Z,100.00
2023-08-10T19:31:11.163Z,100.00
2023-08-10T19:31:43.125Z,100.00
2023-08-10T19:32:15.130Z,100.00
2023-08-10T19:32:49.160Z,100.00
2023-08-10T19:33:21.114Z,100.00
2023-08-10T19:33:53.122Z,100.00
2023-08-10T19:34:25.051Z,100.00
2023-08-10T19:34:56.938Z,100.00
2023-08-10T19:35:29.561Z,100.00
2023-08-10T19:36:01.660Z,100.00
2023-08-10T19:36:33.562Z,100.00
2023-08-10T19:37:06.495Z,100.00
2023-08-10T19:37:38.326Z,100.00
2023-08-10T19:38:10.330Z,100.00
2023-08-10T19:38:42.418Z,100.00
2023-08-10T19:39:14.460Z,100.00
2023-08-10T19:39:47.420Z,100.00
2023-08-10T19:40:19.380Z,100.00
2023-08-10T19:40:51.311Z,100.00
2023-08-10T19:41:23.194Z,100.00
2023-08-10T19:41:55.053Z,100.00
2023-08-10T19:42:28.292Z,100.00
2023-08-10T19:43:00.180Z,100.00
2023-08-10T19:43:32.046Z,100.00
2023-08-10T19:44:05.423Z,100.00
2023-08-10T19:44:37.298Z,100.00
2023-08-10T19:45:10.594Z,100.00
2023-08-10T19:45:42.491Z,100.00
2023-08-10T19:46:14.496Z,100.00
2023-08-10T19:46:46.422Z,100.00
2023-08-10T19:47:21.796Z,100.00
2023-08-10T19:47:56.834Z,100.00
2023-08-10T19:48:28.854Z,100.00
2023-08-10T19:49:00.757Z,100.00
2023-08-10T19:49:32.716Z,100.00
2023-08-10T19:50:05.918Z,100.00
2023-08-10T19:50:37.770Z,100.00
2023-08-10T19:51:09.629Z,100.00
2023-08-10T19:51:41.906Z,100.00
2023-08-10T19:52:13.755Z,100.00
2023-08-10T19:52:45.688Z,100.00
2023-08-10T19:53:18.265Z,100.00
2023-08-10T19:53:50.342Z,100.00
2023-08-10T19:54:22.284Z,100.00
2023-08-10T19:54:54.157Z,100.00
2023-08-10T19:55:26.006Z,100.00
2023-08-10T19:55:57.930Z,100.00
2023-08-10T19:56:30.145Z,100.00
2023-08-10T19:57:04.746Z,100.00
2023-08-10T19:57:36.882Z,100.00
2023-08-10T19:58:10.136Z,100.00
2023-08-10T19:58:41.981Z,100.00
2023-08-10T19:59:13.922Z,100.00
2023-08-10T19:59:45.894Z,100.00
2023-08-10T20:00:17.948Z,100.00
2023-08-10T20:00:49.910Z,100.00
2023-08-10T20:01:22.297Z,100.00
2023-08-10T20:01:54.200Z,100.00
2023-08-10T20:02:26.119Z,100.00
2023-08-10T20:02:58.232Z,100.00
2023-08-10T20:03:31.753Z,100.00
2023-08-10T20:04:03.890Z,100.00
2023-08-10T20:04:35.770Z,100.00
2023-08-10T20:05:08.343Z,100.00
2023-08-10T20:05:40.201Z,100.00
2023-08-10T20:06:12.122Z,100.00
2023-08-10T20:06:44.220Z,100.00
2023-08-10T20:07:16.067Z,100.00
2023-08-10T20:07:48.537Z,100.00
2023-08-10T20:08:20.506Z,100.00
2023-08-10T20:08:52.398Z,100.00
2023-08-10T20:09:24.196Z,100.00
2023-08-10T20:09:56.045Z,100.00
2023-08-10T20:10:28.542Z,100.00
2023-08-10T20:11:00.500Z,100.00
2023-08-10T20:11:32.613Z,100.00
2023-08-10T20:12:05.418Z,100.00
2023-08-10T20:12:38.137Z,100.00
2023-08-10T20:13:10.001Z,100.00
2023-08-10T20:13:41.847Z,100.00
2023-08-10T20:14:13.681Z,100.00
2023-08-10T20:14:45.612Z,100.00
2023-08-10T20:15:17.661Z,100.00
2023-08-10T20:15:49.590Z,100.00
2023-08-10T20:16:21.718Z,100.00
2023-08-10T20:16:53.836Z,100.00
2023-08-10T20:17:26.109Z,100.00
2023-08-10T20:18:01.847Z,100.00
2023-08-10T20:18:33.902Z,100.00
2023-08-10T20:19:05.811Z,100.00
2023-08-10T20:19:38.330Z,100.00
2023-08-10T20:20:13.623Z,100.00
2023-08-10T20:20:45.996Z,100.00
2023-08-10T20:21:17.864Z,100.00
2023-08-10T20:21:49.677Z,100.00
2023-08-10T20:22:22.615Z,100.00
2023-08-10T20:22:58.296Z,100.00
2023-08-10T20:23:32.296Z,100.00
2023-08-10T20:24:07.467Z,100.00
2023-08-10T20:24:39.559Z,100.00
2023-08-10T20:25:11.430Z,100.00
2023-08-10T20:25:43.514Z,100.00
2023-08-10T20:26:15.415Z,100.00
2023-08-10T20:26:47.306Z,100.00
2023-08-10T20:27:19.546Z,100.00
2023-08-10T20:27:51.998Z,100.00
2023-08-10T20:28:23.864Z,100.00
2023-08-10T20:28:55.751Z,100.00
2023-08-10T20:29:27.689Z,100.00
2023-08-10T20:29:59.653Z,100.00
2023-08-10T20:30:37.051Z,100.00
2023-08-10T20:31:08.963Z,100.00
2023-08-10T20:31:40.844Z,100.00
2023-08-10T20:32:14.132Z,100.00
2023-08-10T20:32:47.489Z,100.00
2023-08-10T20:33:19.486Z,100.00
2023-08-10T20:33:52.335Z,100.00
2023-08-10T20:34:24.654Z,100.00
2023-08-10T20:34:56.639Z,100.00
2023-08-10T20:35:30.058Z,100.00
2023-08-10T20:36:01.956Z,100.00
2023-08-10T20:36:33.811Z,100.00
2023-08-10T20:37:06.673Z,100.00
2023-08-10T20:37:38.592Z,100.00
2023-08-10T20:38:10.777Z,100.00
2023-08-10T20:38:42.894Z,100.00
2023-08-10T20:39:15.205Z,100.00
2023-08-10T20:39:47.049Z,100.00
2023-08-10T20:40:19.890Z,100.00
2023-08-10T20:40:51.846Z,100.00
2023-08-10T20:41:23.744Z,100.00
2023-08-10T20:41:55.628Z,100.00
2023-08-10T20:42:27.552Z,100.00
2023-08-10T20:42:59.406Z,100.00
2023-08-10T20:43:31.806Z,100.00
2023-08-10T20:44:03.934Z,100.00
2023-08-10T20:44:36.221Z,100.00
2023-08-10T20:45:08.786Z,100.00
2023-08-10T20:45:43.428Z,100.00
2023-08-10T20:46:23.883Z,100.00
2023-08-10T20:46:57.263Z,100.00
2023-08-10T20:47:29.176Z,100.00
2023-08-10T20:48:01.566Z,100.00
2023-08-10T20:48:33.519Z,100.00
2023-08-10T20:49:05.918Z,100.00
2023-08-10T20:49:37.792Z,100.00
2023-08-10T20:50:10.333Z,100.00
2023-08-10T20:50:42.228Z,100.00
2023-08-10T20:51:15.034Z,100.00
2023-08-10T20:51:46.971Z,100.00
2023-08-10T20:52:18.776Z,100.00
2023-08-10T20:52:50.565Z,100.00
2023-08-10T20:53:22.654Z,100.00
2023-08-10T20:53:54.686Z,100.00
2023-08-10T20:54:26.586Z,100.00
2023-08-10T20:54:58.789Z,100.00
2023-08-10T20:55:30.704Z,100.00
2023-08-10T20:56:06.413Z,100.00
2023-08-10T20:56:38.302Z,100.00
2023-08-10T20:57:10.401Z,100.00
2023-08-10T20:57:42.578Z,100.00
2023-08-10T20:58:14.539Z,100.00
2023-08-10T20:58:47.449Z,100.00
2023-08-10T20:59:19.376Z,100.00
2023-08-10T20:59:51.420Z,100.00
2023-08-10T21:00:24.829Z,100.00
2023-08-10T21:00:57.061Z,100.00
2023-08-10T21:01:29.106Z,100.00
2023-08-10T21:02:01.040Z,100.00
2023-08-10T21:02:33.674Z,100.00
2023-08-10T21:03:06.207Z,100.00
2023-08-10T21:03:39.218Z,100.00
2023-08-10T21:04:11.156Z,100.00
2023-08-10T21:04:43.277Z,100.00
2023-08-10T21:05:15.080Z,100.00
2023-08-10T21:05:46.866Z,100.00
2023-08-10T21:06:18.616Z,100.00
2023-08-10T21:06:50.362Z,100.00
2023-08-10T21:07:22.164Z,100.00
2023-08-10T21:07:54.042Z,100.00
2023-08-10T21:08:25.924Z,100.00
2023-08-10T21:08:57.786Z,100.00
2023-08-10T21:09:29.890Z,100.00
2023-08-10T21:10:01.653Z,100.00
2023-08-10T21:10:34.757Z,100.00
2023-08-10T21:11:07.008Z,100.00
2023-08-10T21:11:38.869Z,100.00
2023-08-10T21:12:10.655Z,100.00
2023-08-10T21:12:42.546Z,100.00
2023-08-10T21:13:14.425Z,100.00
2023-08-10T21:13:48.193Z,100.00
2023-08-10T21:14:19.976Z,100.00
2023-08-10T21:14:51.852Z,100.00
2023-08-10T21:15:23.758Z,100.00
2023-08-10T21:15:55.522Z,100.00
2023-08-10T21:16:27.639Z,100.00
2023-08-10T21:16:59.387Z,100.00
2023-08-10T21:17:31.218Z,100.00
2023-08-10T21:18:03.167Z,100.00
2023-08-10T21:18:35.499Z,100.00
2023-08-10T21:19:08.938Z,100.00
2023-08-10T21:19:40.721Z,100.00
2023-08-10T21:20:12.763Z,100.00
2023-08-10T21:20:45.542Z,100.00
2023-08-10T21:21:17.918Z,100.00
2023-08-10T21:21:50.834Z,100.00
2023-08-10T21:22:23.508Z,100.00
2023-08-10T21:22:55.379Z,100.00
2023-08-10T21:23:27.809Z,100.00
2023-08-10T21:24:00.045Z,100.00
2023-08-10T21:24:32.367Z,100.00
2023-08-10T21:25:06.369Z,100.00
2023-08-10T21:25:39.191Z,100.00
2023-08-10T21:26:11.564Z,100.00
2023-08-10T21:26:43.709Z,100.00
2023-08-10T21:27:15.719Z,100.00
2023-08-10T21:27:48.346Z,100.00
2023-08-10T21:28:20.371Z,100.00
2023-08-10T21:28:52.284Z,100.00
2023-08-10T21:29:24.517Z,100.00
2023-08-10T21:29:56.367Z,100.00
2023-08-10T21:30:28.413Z,100.00
2023-08-10T21:31:00.340Z,100.00
2023-08-10T21:31:32.401Z,100.00
2023-08-10T21:32:04.557Z,100.00
2023-08-10T21:32:38.007Z,100.00
2023-08-10T21:33:10.128Z,100.00
2023-08-10T21:33:41.933Z,100.00
2023-08-10T21:34:13.696Z,100.00
2023-08-10T21:34:45.471Z,100.00
2023-08-10T21:35:17.497Z,100.00
2023-08-10T21:35:49.271Z,100.00
2023-08-10T21:36:21.796Z,100.00
2023-08-10T21:36:55.362Z,100.00
2023-08-10T21:37:27.139Z,100.00
2023-08-10T21:37:58.896Z,100.00
2023-08-10T21:38:30.650Z,100.00
2023-08-10T21:39:02.690Z,100.00
2023-08-10T21:39:34.452Z,100.00
2023-08-10T21:40:07.956Z,100.00
2023-08-10T21:40:40.136Z,100.00
2023-08-10T21:41:11.927Z,100.00
2023-08-10T21:41:44.658Z,100.00
2023-08-10T21:42:16.643Z,100.00
2023-08-10T21:42:48.475Z,100.00
2023-08-10T21:43:20.258Z,100.00
2023-08-10T21:43:52.125Z,100.00
2023-08-10T21:44:24.007Z,100.00
2023-08-10T21:44:55.770Z,100.00
2023-08-10T21:45:27.605Z,100.00
2023-08-10T21:45:59.466Z,100.00
2023-08-10T21:46:31.267Z,100.00
2023-08-10T21:47:03.113Z,100.00
2023-08-10T21:47:35.040Z,100.00
2023-08-10T21:48:07.882Z,100.00
2023-08-10T21:48:39.823Z,100.00
2023-08-10T21:49:11.719Z,100.00
2023-08-10T21:49:43.502Z,100.00
2023-08-10T21:50:15.464Z,100.00
2023-08-10T21:50:47.276Z,100.00
2023-08-10T21:51:19.780Z,100.00
2023-08-10T21:51:51.583Z,100.00
2023-08-10T21:52:23.343Z,100.00
2023-08-10T21:52:55.109Z,100.00
2023-08-10T21:53:26.854Z,100.00
2023-08-10T21:53:58.857Z,100.00
2023-08-10T21:54:30.760Z,100.00
2023-08-10T21:55:02.796Z,100.00
2023-08-10T21:55:35.739Z,100.00
2023-08-10T21:56:07.605Z,100.00
2023-08-10T21:56:39.534Z,100.00
2023-08-10T21:57:11.438Z,100.00
2023-08-10T21:57:43.726Z,100.00
2023-08-10T21:58:15.854Z,100.00
2023-08-10T21:58:47.934Z,100.00
2023-08-10T21:59:19.807Z,100.00
2023-08-10T21:59:51.614Z,100.00
2023-08-10T22:00:23.411Z,100.00
2023-08-10T22:00:55.242Z,100.00
2023-08-10T22:01:27.098Z,100.00
2023-08-10T22:01:59.663Z,100.00
2023-08-10T22:02:31.534Z,100.00
2023-08-10T22:03:03.660Z,100.00
2023-08-10T22:03:37.285Z,100.00
2023-08-10T22:04:09.051Z,100.00
2023-08-10T22:04:40.922Z,100.00
2023-08-10T22:05:12.816Z,100.00
2023-08-10T22:05:48.190Z,100.00
2023-08-10T22:06:20.038Z,100.00
2023-08-10T22:06:51.820Z,100.00
2023-08-10T22:07:23.599Z,100.00
2023-08-10T22:07:55.356Z,100.00
2023-08-10T22:08:27.217Z,100.00
2023-08-10T22:08:59.013Z,100.00
2023-08-10T22:09:30.808Z,100.00
2023-08-10T22:10:03.358Z,100.00
2023-08-10T22:10:35.310Z,100.00
2023-08-10T22:11:07.559Z,100.00
2023-08-10T22:11:39.728Z,100.00
2023-08-10T22:12:12.739Z,100.00
2023-08-10T22:12:44.547Z,100.00